Time;durP1;ratioP1;P1;durP2;ratioP2;P2;SDS_P1;SDS_P2;PMS_P1;PMS_P2;Temp;Humidity;BMP_temperature;BMP_pressure;BME280_temperature;BME280_humidity;BME280_pressure;Samples;Min_cycle;Max_cycle;Signal;HPM_P1;HPM_P2
2023/12/21 00:01:14;;;;;;;1.67;0.80;;;;;;;5.44;100.00;97546.34;2600530;28;20038;-94
2023/12/21 00:02:30;;;;;;;0.88;0.50;;;;;;;5.59;100.00;97538.22;2599736;28;20045;-95
2023/12/21 00:03:48;;;;;;;1.05;0.82;;;;;;;5.50;100.00;97541.88;2601638;28;20057;-94
2023/12/21 00:05:04;;;;;;;2.13;0.98;;;;;;;5.39;100.00;97537.81;2599858;28;20052;-95
2023/12/21 00:06:20;;;;;;;1.23;0.80;;;;;;;5.51;100.00;97534.94;2600580;28;20033;-94
2023/12/21 00:07:36;;;;;;;0.95;0.75;;;;;;;5.33;100.00;97518.03;2590580;28;20401;-94
2023/12/21 00:08:53;;;;;;;0.60;0.60;;;;;;;5.43;100.00;97529.91;2587879;28;20041;-94
2023/12/21 00:10:09;;;;;;;0.65;0.60;;;;;;;5.64;100.00;97530.34;2585509;28;20061;-95
2023/12/21 00:11:25;;;;;;;1.55;0.98;;;;;;;5.45;100.00;97520.38;2595074;28;20037;-95
2023/12/21 00:12:41;;;;;;;1.88;0.95;;;;;;;5.45;100.00;97524.69;2587924;28;20049;-95
2023/12/21 00:13:58;;;;;;;2.55;1.30;;;;;;;5.29;100.00;97517.25;2584947;28;20037;-94
2023/12/21 00:15:15;;;;;;;0.98;0.80;;;;;;;5.40;100.00;97519.59;2589838;28;20042;-96
2023/12/21 00:16:31;;;;;;;2.22;1.15;;;;;;;5.39;100.00;97532.63;2578736;28;20030;-95
2023/12/21 00:17:50;;;;;;;1.98;0.95;;;;;;;5.27;100.00;97525.94;2587291;28;20072;-94
2023/12/21 00:19:06;;;;;;;0.95;0.80;;;;;;;5.39;100.00;97523.09;2579596;28;20104;-95
2023/12/21 00:20:22;;;;;;;1.30;0.90;;;;;;;5.30;100.00;97518.09;2588356;28;20037;-94
2023/12/21 00:21:38;;;;;;;1.58;1.00;;;;;;;5.29;100.00;97518.97;2589478;28;20042;-95
2023/12/21 00:22:54;;;;;;;1.38;0.80;;;;;;;5.42;100.00;97533.41;2591223;28;20022;-94
2023/12/21 00:24:10;;;;;;;1.25;1.00;;;;;;;5.29;100.00;97506.88;2592759;28;20132;-94
2023/12/21 00:25:26;;;;;;;0.90;0.75;;;;;;;5.28;100.00;97510.34;2595403;28;20418;-95
2023/12/21 00:26:42;;;;;;;2.35;0.90;;;;;;;5.24;100.00;97513.91;2602559;28;20132;-94
2023/12/21 00:27:58;;;;;;;1.70;0.90;;;;;;;5.29;100.00;97516.38;2591065;28;20038;-93
2023/12/21 00:29:14;;;;;;;1.50;0.93;;;;;;;5.21;100.00;97506.16;2582542;28;20084;-95
2023/12/21 00:30:31;;;;;;;1.30;0.77;;;;;;;5.27;100.00;97508.66;2584137;28;20038;-96
2023/12/21 00:31:47;;;;;;;1.25;1.05;;;;;;;5.04;100.00;97502.19;2584656;28;20068;-96
2023/12/21 00:33:03;;;;;;;0.90;0.70;;;;;;;5.19;100.00;97514.00;2575127;28;20042;-96
2023/12/21 00:34:19;;;;;;;0.88;0.70;;;;;;;5.24;100.00;97508.72;2578625;28;20070;-94
2023/12/21 00:35:36;;;;;;;3.45;1.20;;;;;;;5.28;100.00;97509.47;2585972;28;20049;-93
2023/12/21 00:36:52;;;;;;;0.90;0.75;;;;;;;5.23;100.00;97502.66;2590363;28;20048;-96
2023/12/21 00:38:09;;;;;;;1.58;0.77;;;;;;;5.23;100.00;97489.69;2601310;28;20041;-96
2023/12/21 00:39:26;;;;;;;0.90;0.90;;;;;;;5.17;100.00;97491.56;2595950;28;20120;-96
2023/12/21 00:40:42;;;;;;;1.17;0.90;;;;;;;5.16;100.00;97485.50;2590136;28;20045;-96
2023/12/21 00:41:58;;;;;;;1.33;0.80;;;;;;;5.14;100.00;97487.28;2581866;28;20042;-96
2023/12/21 00:43:14;;;;;;;0.68;0.63;;;;;;;5.23;100.00;97488.81;2587447;28;20038;-95
2023/12/21 00:44:30;;;;;;;1.13;0.80;;;;;;;5.20;100.00;97494.09;2582020;28;20038;-96
2023/12/21 00:45:47;;;;;;;1.38;0.80;;;;;;;5.28;100.00;97491.31;2583810;28;20559;-96
2023/12/21 00:47:03;;;;;;;1.55;0.85;;;;;;;5.15;100.00;97485.56;2579985;28;20060;-96
2023/12/21 00:48:19;;;;;;;1.30;1.00;;;;;;;4.98;100.00;97483.31;2592444;28;20041;-94
2023/12/21 00:49:35;;;;;;;1.48;1.00;;;;;;;5.12;100.00;97494.25;2595812;28;20041;-96
2023/12/21 00:50:52;;;;;;;1.13;0.85;;;;;;;5.13;100.00;97488.16;2592445;28;20067;-96
2023/12/21 00:52:08;;;;;;;0.70;0.70;;;;;;;5.14;100.00;97499.41;2570927;28;20070;-94
2023/12/21 00:53:26;;;;;;;1.83;1.00;;;;;;;5.12;100.00;97502.03;2576222;28;20045;-96
2023/12/21 00:54:42;;;;;;;1.00;0.75;;;;;;;5.13;100.00;97495.13;2584538;28;20038;-96
2023/12/21 00:55:59;;;;;;;2.92;1.10;;;;;;;4.95;100.00;97479.91;2580910;28;20053;-96
2023/12/21 00:57:15;;;;;;;2.75;0.95;;;;;;;5.10;100.00;97485.66;2590776;28;20148;-96
2023/12/21 00:58:31;;;;;;;0.60;0.52;;;;;;;5.29;100.00;97499.09;2592236;28;20065;-95
2023/12/21 00:59:47;;;;;;;1.42;0.77;;;;;;;5.03;100.00;97490.09;2584547;28;20367;-96
2023/12/21 01:01:04;;;;;;;0.85;0.60;;;;;;;5.25;100.00;97483.59;2596434;28;20484;-96
2023/12/21 01:02:20;;;;;;;0.40;0.40;;;;;;;5.12;100.00;97478.69;2594879;28;20033;-96
2023/12/21 01:03:36;;;;;;;1.02;0.93;;;;;;;4.87;100.00;97484.38;2588657;28;20045;-95
2023/12/21 01:04:52;;;;;;;1.17;0.90;;;;;;;4.96;100.00;97467.78;2584119;28;20110;-96
2023/12/21 01:06:09;;;;;;;1.05;0.70;;;;;;;4.89;100.00;97472.25;2594317;28;20052;-96
2023/12/21 01:07:25;;;;;;;1.30;0.85;;;;;;;4.89;100.00;97477.44;2595182;28;20042;-95
2023/12/21 01:08:43;;;;;;;0.60;0.60;;;;;;;4.97;100.00;97477.28;2588592;28;20575;-96
2023/12/21 01:10:00;;;;;;;2.22;0.93;;;;;;;4.92;100.00;97482.56;2581551;28;20041;-96
2023/12/21 01:11:16;;;;;;;1.00;0.90;;;;;;;4.95;100.00;97472.13;2593238;28;20041;-96
2023/12/21 01:12:32;;;;;;;1.05;0.80;;;;;;;4.89;100.00;97468.78;2589543;28;20022;-96
2023/12/21 01:13:48;;;;;;;0.80;0.60;;;;;;;5.04;100.00;97463.28;2587031;28;20017;-95
2023/12/21 01:15:05;;;;;;;1.10;0.40;;;;;;;4.93;100.00;97460.91;2589218;28;20069;-95
2023/12/21 01:16:21;;;;;;;0.75;0.50;;;;;;;4.89;100.00;97454.09;2585260;28;20038;-95
2023/12/21 01:17:37;;;;;;;0.73;0.70;;;;;;;4.95;100.00;97460.88;2586349;28;20042;-95
2023/12/21 01:18:53;;;;;;;0.50;0.43;;;;;;;5.06;100.00;97458.91;2573297;28;20038;-95
2023/12/21 01:20:10;;;;;;;0.98;0.73;;;;;;;4.95;100.00;97456.56;2583252;28;20073;-95
2023/12/21 01:21:26;;;;;;;0.88;0.68;;;;;;;4.97;100.00;97461.72;2578683;28;20061;-95
2023/12/21 01:22:42;;;;;;;0.93;0.45;;;;;;;4.85;100.00;97449.00;2583033;28;20073;-95
2023/12/21 01:23:58;;;;;;;0.68;0.47;;;;;;;4.95;100.00;97456.56;2586627;28;20038;-96
2023/12/21 01:25:14;;;;;;;0.60;0.60;;;;;;;4.78;100.00;97449.13;2586498;28;20042;-95
2023/12/21 01:26:31;;;;;;;0.80;0.60;;;;;;;4.85;100.00;97447.25;2577140;28;20045;-95
2023/12/21 01:27:47;;;;;;;0.93;0.80;;;;;;;4.74;100.00;97444.88;2576849;28;20116;-96
2023/12/21 01:29:03;;;;;;;1.35;0.50;;;;;;;4.93;100.00;97444.50;2577490;28;20030;-95
2023/12/21 01:30:21;;;;;;;0.85;0.70;;;;;;;4.82;100.00;97429.16;2585800;28;20127;-95
2023/12/21 01:31:37;;;;;;;0.60;0.60;;;;;;;4.76;100.00;97427.56;2594207;28;20140;-96
2023/12/21 01:32:53;;;;;;;2.13;0.90;;;;;;;4.70;100.00;97437.19;2600336;28;20029;-95
2023/12/21 01:34:09;;;;;;;0.68;0.60;;;;;;;4.78;100.00;97432.72;2589593;28;20049;-95
2023/12/21 01:35:25;;;;;;;0.55;0.47;;;;;;;4.82;100.00;97426.56;2588582;28;20065;-95
2023/12/21 01:36:41;;;;;;;0.50;0.50;;;;;;;4.68;100.00;97416.50;2581433;28;20074;-95
2023/12/21 01:37:57;;;;;;;0.85;0.70;;;;;;;4.57;100.00;97401.16;2593281;28;20405;-95
2023/12/21 01:39:14;;;;;;;0.52;0.52;;;;;;;4.76;100.00;97405.97;2589480;28;20041;-95
2023/12/21 01:40:30;;;;;;;0.73;0.70;;;;;;;4.70;100.00;97398.31;2584684;28;20133;-94
2023/12/21 01:41:46;;;;;;;0.80;0.80;;;;;;;4.68;100.00;97407.88;2583101;28;20520;-94
2023/12/21 01:43:02;;;;;;;0.90;0.60;;;;;;;4.71;100.00;97403.47;2584575;28;20053;-93
2023/12/21 01:44:18;;;;;;;0.40;0.40;;;;;;;4.74;100.00;97398.22;2589310;28;20048;-94
2023/12/21 01:45:34;;;;;;;1.95;0.80;;;;;;;4.58;100.00;97395.09;2594884;28;20185;-94
2023/12/21 01:46:50;;;;;;;0.50;0.50;;;;;;;4.75;100.00;97404.25;2580828;28;20829;-93
2023/12/21 01:48:07;;;;;;;0.43;0.43;;;;;;;4.76;100.00;97405.97;2591320;28;20076;-94
2023/12/21 01:49:23;;;;;;;0.95;0.60;;;;;;;4.61;100.00;97384.66;2592667;28;20101;-94
2023/12/21 01:50:41;;;;;;;0.50;0.50;;;;;;;4.71;100.00;97387.03;2586806;28;20056;-94
2023/12/21 01:51:58;;;;;;;1.52;0.55;;;;;;;4.77;100.00;97392.13;2591928;28;20595;-94
2023/12/21 01:53:15;;;;;;;0.88;0.50;;;;;;;4.90;100.00;97392.69;2589538;28;20095;-94
2023/12/21 01:54:31;;;;;;;0.52;0.40;;;;;;;4.78;100.00;97391.22;2582190;28;20053;-94
2023/12/21 01:55:48;;;;;;;0.70;0.50;;;;;;;4.73;100.00;97401.69;2574411;28;20049;-95
2023/12/21 01:57:04;;;;;;;0.68;0.57;;;;;;;4.83;100.00;97386.78;2591368;28;20042;-95
2023/12/21 01:58:20;;;;;;;0.88;0.50;;;;;;;4.94;100.00;97379.63;2586595;28;20046;-94
2023/12/21 01:59:36;;;;;;;0.80;0.65;;;;;;;4.77;100.00;97376.56;2583460;28;20499;-94
2023/12/21 02:00:56;;;;;;;0.30;0.30;;;;;;;4.80;100.00;97374.72;2572447;28;20050;-95
2023/12/21 02:02:12;;;;;;;0.30;0.30;;;;;;;4.73;100.00;97368.00;2578298;28;20077;-95
2023/12/21 02:03:29;;;;;;;0.98;0.40;;;;;;;4.82;100.00;97356.56;2585379;28;20075;-95
2023/12/21 02:04:47;;;;;;;0.57;0.50;;;;;;;4.78;100.00;97357.53;2589988;28;20041;-95
2023/12/21 02:06:03;;;;;;;0.60;0.60;;;;;;;4.79;100.00;97356.63;2593845;28;20132;-94
2023/12/21 02:07:19;;;;;;;1.48;0.68;;;;;;;4.80;100.00;97346.19;2583348;28;20034;-94
2023/12/21 02:08:35;;;;;;;1.20;0.50;;;;;;;4.75;100.00;97352.38;2582456;28;20056;-94
2023/12/21 02:09:51;;;;;;;0.40;0.40;;;;;;;4.86;100.00;97339.19;2584789;28;20038;-94
2023/12/21 02:11:09;;;;;;;0.80;0.63;;;;;;;4.70;100.00;97342.13;2580837;28;20038;-94
2023/12/21 02:12:25;;;;;;;0.90;0.32;;;;;;;4.92;100.00;97334.72;2593825;28;20132;-94
2023/12/21 02:13:41;;;;;;;0.63;0.45;;;;;;;4.92;100.00;97332.13;2577606;28;20049;-94
2023/12/21 02:14:57;;;;;;;0.82;0.55;;;;;;;4.83;100.00;97334.09;2583271;28;20493;-94
2023/12/21 02:16:19;;;;;;;0.60;0.60;;;;;;;4.80;100.00;97324.63;2587496;28;20042;-94
2023/12/21 02:17:36;;;;;;;;;;;;;;;4.77;100.00;97329.88;2581504;28;20045;-95
2023/12/21 02:18:52;;;;;;;0.40;0.40;;;;;;;4.86;100.00;97316.69;2579859;28;20380;-94
2023/12/21 02:20:09;;;;;;;0.50;0.50;;;;;;;4.74;100.00;97311.78;2583312;28;20425;-94
2023/12/21 02:21:28;;;;;;;0.50;0.50;;;;;;;4.79;100.00;97315.13;2594919;28;20418;-94
2023/12/21 02:22:46;;;;;;;2.20;0.40;;;;;;;4.83;100.00;97311.56;2590890;28;20520;-94
2023/12/21 02:24:04;;;;;;;0.40;0.40;;;;;;;4.93;100.00;97309.63;2592396;28;20049;-95
2023/12/21 02:25:20;;;;;;;0.68;0.60;;;;;;;4.90;100.00;97318.34;2591435;28;20538;-94
2023/12/21 02:26:36;;;;;;;0.52;0.20;;;;;;;4.89;100.00;97313.19;2594762;28;20047;-95
2023/12/21 02:27:52;;;;;;;0.32;0.32;;;;;;;4.93;100.00;97307.03;2588888;28;20081;-95
2023/12/21 02:29:08;;;;;;;0.80;0.60;;;;;;;4.75;100.00;97300.50;2591976;28;20033;-94
2023/12/21 02:30:25;;;;;;;0.90;0.63;;;;;;;4.72;100.00;97291.09;2596683;28;20037;-96
2023/12/21 02:31:41;;;;;;;0.93;0.70;;;;;;;4.81;100.00;97308.16;2599404;28;20037;-94
2023/12/21 02:32:57;;;;;;;0.50;0.50;;;;;;;4.84;100.00;97310.69;2593368;28;20038;-94
2023/12/21 02:34:13;;;;;;;0.50;0.30;;;;;;;4.93;100.00;97305.28;2597198;28;20083;-94
2023/12/21 02:35:29;;;;;;;0.50;0.50;;;;;;;4.86;100.00;97305.47;2592630;28;20041;-94
2023/12/21 02:36:45;;;;;;;1.05;0.70;;;;;;;4.69;100.00;97274.75;2591795;28;20034;-94
2023/12/21 02:38:04;;;;;;;1.75;0.90;;;;;;;4.72;100.00;97266.88;2586188;28;20042;-96
2023/12/21 02:39:20;;;;;;;1.10;0.45;;;;;;;4.79;100.00;97281.44;2597624;28;20075;-93
2023/12/21 02:40:36;;;;;;;0.70;0.70;;;;;;;4.85;100.00;97281.28;2593444;28;21018;-94
2023/12/21 02:41:54;;;;;;;0.30;0.30;;;;;;;5.02;100.00;97277.41;2597899;28;20136;-96
2023/12/21 02:43:10;;;;;;;0.63;0.60;;;;;;;4.89;100.00;97264.78;2600672;28;20574;-96
2023/12/21 02:44:26;;;;;;;0.50;0.50;;;;;;;4.86;100.00;97271.75;2587789;28;20117;-96
2023/12/21 02:45:43;;;;;;;0.65;0.52;;;;;;;4.85;100.00;97275.25;2585957;28;20057;-96
2023/12/21 02:46:59;;;;;;;0.70;0.60;;;;;;;4.88;100.00;97265.63;2599117;28;20148;-96
2023/12/21 02:48:15;;;;;;;0.38;0.38;;;;;;;4.95;100.00;97262.00;2592507;28;20144;-96
2023/12/21 02:49:31;;;;;;;0.40;0.40;;;;;;;4.90;100.00;97255.22;2586766;28;20091;-96
2023/12/21 02:50:47;;;;;;;0.57;0.57;;;;;;;4.99;100.00;97254.16;2595490;28;20037;-95
2023/12/21 02:52:05;;;;;;;0.77;0.75;;;;;;;4.84;100.00;97245.03;2602529;28;20137;-95
2023/12/21 02:53:21;;;;;;;0.50;0.50;;;;;;;5.00;100.00;97258.44;2602214;28;20132;-95
2023/12/21 02:54:37;;;;;;;1.75;0.63;;;;;;;5.13;100.00;97246.03;2599071;28;20073;-96
2023/12/21 02:56:01;;;;;;;0.43;0.43;;;;;;;5.02;100.00;97236.78;2603842;28;20056;-96
2023/12/21 02:57:20;;;;;;;0.40;0.40;;;;;;;5.12;100.00;97234.78;2607860;28;20447;-95
2023/12/21 02:58:37;;;;;;;0.63;0.63;;;;;;;4.95;100.00;97243.84;2592300;28;20128;-95
2023/12/21 03:00:00;;;;;;;1.10;0.70;;;;;;;4.88;100.00;97236.25;2597031;28;20052;-95
2023/12/21 03:01:18;;;;;;;0.63;0.60;;;;;;;4.91;100.00;97244.84;2604858;28;20809;-95
2023/12/21 03:02:35;;;;;;;0.70;0.65;;;;;;;4.96;100.00;97247.31;2599794;28;20137;-95
2023/12/21 03:03:51;;;;;;;0.63;0.52;;;;;;;5.10;100.00;97226.19;2594567;28;20114;-96
2023/12/21 03:05:08;;;;;;;0.98;0.50;;;;;;;5.00;100.00;97220.41;2591051;28;20062;-95
2023/12/21 03:06:24;;;;;;;0.80;0.80;;;;;;;4.91;100.00;97218.91;2605147;28;20029;-95
2023/12/21 03:07:42;;;;;;;0.70;0.50;;;;;;;5.03;100.00;97227.22;2600846;28;20041;-95
2023/12/21 03:08:58;;;;;;;0.50;0.50;;;;;;;5.19;100.00;97209.53;2599796;28;20037;-96
2023/12/21 03:10:15;;;;;;;0.50;0.50;;;;;;;5.00;100.00;97210.03;2590615;28;20037;-96
2023/12/21 03:11:34;;;;;;;0.50;0.50;;;;;;;5.12;100.00;97219.22;2591912;28;20033;-96
2023/12/21 03:12:50;;;;;;;0.80;0.70;;;;;;;5.13;100.00;97213.13;2604114;28;20048;-94
2023/12/21 03:14:06;;;;;;;1.85;0.65;;;;;;;5.02;100.00;97202.19;2604672;28;20041;-95
2023/12/21 03:15:22;;;;;;;0.50;0.50;;;;;;;5.13;100.00;97197.56;2597589;28;20041;-94
2023/12/21 03:16:40;;;;;;;0.40;0.40;;;;;;;4.96;100.00;97190.25;2592213;28;20038;-96
2023/12/21 03:17:56;;;;;;;1.00;0.80;;;;;;;5.01;100.00;97192.69;2594914;28;20173;-96
2023/12/21 03:19:15;;;;;;;1.25;0.70;;;;;;;5.01;100.00;97195.28;2602269;28;20061;-94
2023/12/21 03:20:31;;;;;;;1.20;0.70;;;;;;;4.99;100.00;97194.50;2599213;28;20045;-94
2023/12/21 03:21:50;;;;;;;3.13;0.75;;;;;;;5.12;100.00;97185.50;2604173;28;20049;-94
2023/12/21 03:23:06;;;;;;;0.63;0.47;;;;;;;5.21;100.00;97187.84;2603933;28;20117;-94
2023/12/21 03:24:22;;;;;;;0.65;0.60;;;;;;;5.01;100.00;97187.50;2588482;28;20069;-94
2023/12/21 03:25:40;;;;;;;0.50;0.50;;;;;;;5.11;100.00;97181.19;2579356;28;20101;-94
2023/12/21 03:26:59;;;;;;;0.50;0.50;;;;;;;5.11;100.00;97168.22;2588009;28;20068;-94
2023/12/21 03:28:15;;;;;;;0.50;0.50;;;;;;;5.09;100.00;97172.63;2584964;28;20050;-94
2023/12/21 03:29:34;;;;;;;0.63;0.60;;;;;;;5.13;100.00;97176.81;2587131;28;20038;-95
2023/12/21 03:30:53;;;;;;;0.50;0.50;;;;;;;5.13;100.00;97194.97;2579980;28;20030;-94
2023/12/21 03:32:09;;;;;;;1.23;0.80;;;;;;;5.03;100.00;97158.06;2590140;28;20034;-95
2023/12/21 03:33:29;;;;;;;1.00;0.60;;;;;;;5.13;100.00;97174.22;2589736;28;20045;-94
2023/12/21 03:34:45;;;;;;;0.90;0.40;;;;;;;5.26;100.00;97160.91;2589595;28;20076;-94
2023/12/21 03:36:02;;;;;;;0.68;0.60;;;;;;;5.02;100.00;97145.97;2579967;28;20070;-95
2023/12/21 03:37:18;;;;;;;0.73;0.60;;;;;;;5.19;100.00;97150.72;2589483;28;20068;-94
2023/12/21 03:38:34;;;;;;;0.50;0.50;;;;;;;5.04;100.00;97143.34;2589229;28;20073;-95
2023/12/21 03:39:50;;;;;;;1.05;0.50;;;;;;;5.03;100.00;97137.31;2589436;28;20048;-95
2023/12/21 03:41:06;;;;;;;0.55;0.55;;;;;;;5.11;100.00;97133.66;2582860;28;20077;-95
2023/12/21 03:42:25;;;;;;;0.75;0.60;;;;;;;5.03;100.00;97139.03;2577525;28;20042;-94
2023/12/21 03:43:41;;;;;;;0.60;0.60;;;;;;;5.13;100.00;97134.47;2589446;28;20072;-94
2023/12/21 03:44:57;;;;;;;0.60;0.60;;;;;;;5.07;100.00;97133.72;2591435;28;20052;-95
2023/12/21 03:46:13;;;;;;;1.40;0.50;;;;;;;5.20;100.00;97138.59;2594551;28;20045;-95
2023/12/21 03:47:29;;;;;;;0.55;0.55;;;;;;;5.04;100.00;97130.38;2603095;28;20045;-96
2023/12/21 03:48:45;;;;;;;0.63;0.50;;;;;;;5.14;100.00;97129.22;2588096;28;20041;-94
2023/12/21 03:50:01;;;;;;;0.73;0.57;;;;;;;5.12;100.00;97136.19;2587295;28;20140;-96
2023/12/21 03:51:17;;;;;;;0.38;0.35;;;;;;;5.20;100.00;97126.47;2585185;28;20041;-96
2023/12/21 03:52:33;;;;;;;2.05;0.70;;;;;;;5.06;100.00;97133.78;2585376;28;20042;-96
2023/12/21 03:53:49;;;;;;;0.30;0.30;;;;;;;5.12;100.00;97128.41;2588920;28;20065;-96
2023/12/21 03:55:06;;;;;;;0.77;0.60;;;;;;;5.19;100.00;97129.97;2583250;28;20054;-96
2023/12/21 03:56:22;;;;;;;0.47;0.47;;;;;;;5.18;100.00;97124.81;2590837;28;20037;-96
2023/12/21 03:57:38;;;;;;;0.40;0.40;;;;;;;5.16;100.00;97121.41;2589783;28;20104;-96
2023/12/21 03:58:54;;;;;;;0.30;0.30;;;;;;;5.23;100.00;97109.94;2585247;28;20483;-96
2023/12/21 04:00:18;;;;;;;0.85;0.50;;;;;;;5.23;100.00;97107.34;2574371;28;20038;-96
2023/12/21 04:01:34;;;;;;;0.63;0.60;;;;;;;5.07;100.00;97107.78;2586349;28;20065;-96
2023/12/21 04:02:50;;;;;;;0.43;0.43;;;;;;;5.31;100.00;97114.94;2578917;28;20109;-96
2023/12/21 04:04:06;;;;;;;0.60;0.60;;;;;;;5.16;100.00;97119.66;2583805;28;20041;-96
2023/12/21 04:05:22;;;;;;;0.20;0.20;;;;;;;5.37;100.00;97119.97;2581477;28;20125;-96
2023/12/21 04:06:38;;;;;;;1.17;0.60;;;;;;;5.17;100.00;97116.19;2583122;28;20065;-96
2023/12/21 04:07:54;;;;;;;0.47;0.45;;;;;;;5.18;100.00;97117.03;2580032;28;20042;-96
2023/12/21 04:09:10;;;;;;;0.65;0.30;;;;;;;5.35;100.00;97126.94;2584287;28;20049;-96
2023/12/21 04:10:26;;;;;;;0.30;0.30;;;;;;;5.48;100.00;97133.50;2580209;28;20037;-96
2023/12/21 04:11:42;;;;;;;0.60;0.50;;;;;;;5.10;100.00;97122.44;2597009;28;20041;-96
2023/12/21 04:12:58;;;;;;;0.65;0.50;;;;;;;5.10;100.00;97138.00;2596150;28;20041;-96
2023/12/21 04:14:15;;;;;;;0.30;0.30;;;;;;;5.36;100.00;97128.63;2594879;28;20041;-96
2023/12/21 04:15:31;;;;;;;0.13;0.13;;;;;;;5.47;100.00;97120.53;2585239;28;20056;-96
2023/12/21 04:16:48;;;;;;;0.35;0.35;;;;;;;5.25;100.00;97122.91;2588050;28;20045;-95
2023/12/21 04:18:04;;;;;;;0.32;0.32;;;;;;;5.40;100.00;97129.41;2586351;28;20042;-95
2023/12/21 04:19:20;;;;;;;0.47;0.40;;;;;;;5.26;100.00;97116.81;2586673;28;20046;-96
2023/12/21 04:20:36;;;;;;;0.35;0.13;;;;;;;5.45;100.00;97111.94;2586087;28;20104;-95
2023/12/21 04:21:52;;;;;;;0.30;0.30;;;;;;;5.30;100.00;97119.28;2596795;28;20045;-95
2023/12/21 04:23:08;;;;;;;0.15;0.15;;;;;;;5.48;100.00;97112.72;2587461;28;20101;-95
2023/12/21 04:24:27;;;;;;;0.30;0.30;;;;;;;5.41;100.00;97116.38;2594658;28;20033;-95
2023/12/21 04:25:44;;;;;;;1.27;0.50;;;;;;;5.28;100.00;97115.03;2587095;28;20045;-95
2023/12/21 04:27:02;;;;;;;0.50;0.50;;;;;;;5.32;100.00;97112.28;2601256;28;20527;-93
2023/12/21 04:28:18;;;;;;;0.45;0.45;;;;;;;5.25;100.00;97117.69;2588136;28;20046;-93
2023/12/21 04:29:38;;;;;;;0.32;0.32;;;;;;;5.31;100.00;97104.56;2582019;28;20029;-94
2023/12/21 04:30:54;;;;;;;1.17;0.40;;;;;;;5.29;100.00;97103.75;2603089;28;20045;-96
2023/12/21 04:32:13;;;;;;;0.30;0.30;;;;;;;5.34;100.00;97117.47;2591371;28;20050;-96
2023/12/21 04:33:32;;;;;;;0.52;0.50;;;;;;;5.45;100.00;97105.03;2585281;28;20105;-92
2023/12/21 04:34:48;;;;;;;0.20;0.20;;;;;;;5.44;100.00;97095.50;2593418;28;20055;-95
2023/12/21 04:36:05;;;;;;;0.30;0.28;;;;;;;5.39;100.00;97089.63;2603107;28;20040;-94
2023/12/21 04:37:22;;;;;;;0.47;0.47;;;;;;;5.36;100.00;97089.72;2602456;28;20133;-95
2023/12/21 04:38:38;;;;;;;0.40;0.30;;;;;;;5.43;100.00;97072.22;2603422;28;20028;-94
2023/12/21 04:39:54;;;;;;;0.30;0.30;;;;;;;5.54;100.00;97084.88;2583462;28;20376;-94
2023/12/21 04:41:10;;;;;;;0.40;0.40;;;;;;;5.39;100.00;97088.78;2583830;28;20076;-95
2023/12/21 04:42:26;;;;;;;0.55;0.40;;;;;;;5.42;100.00;97086.91;2584801;28;20109;-95
2023/12/21 04:43:42;;;;;;;1.20;0.20;;;;;;;5.74;100.00;97092.06;2573039;28;20046;-95
2023/12/21 04:44:58;;;;;;;0.17;0.17;;;;;;;5.50;100.00;97079.78;2576449;28;20038;-94
2023/12/21 04:46:14;;;;;;;0.20;0.20;;;;;;;5.50;100.00;97084.97;2586322;28;20044;-94
2023/12/21 04:47:30;;;;;;;0.22;0.22;;;;;;;5.43;100.00;97093.81;2590433;28;20483;-94
2023/12/21 04:48:46;;;;;;;0.47;0.40;;;;;;;5.55;100.00;97087.44;2592687;28;20184;-94
2023/12/21 04:50:02;;;;;;;0.22;0.22;;;;;;;5.53;100.00;97088.38;2593892;28;20072;-95
2023/12/21 04:51:18;;;;;;;0.40;0.40;;;;;;;5.38;100.00;97093.09;2586000;28;20073;-94
2023/12/21 04:52:36;;;;;;;0.28;0.28;;;;;;;5.44;100.00;97100.69;2578354;28;20074;-96
2023/12/21 04:53:52;;;;;;;0.40;0.40;;;;;;;5.36;100.00;97089.72;2605935;28;20091;-94
2023/12/21 04:55:08;;;;;;;1.13;0.35;;;;;;;5.59;100.00;97093.38;2591868;28;20042;-94
2023/12/21 04:56:24;;;;;;;0.38;0.38;;;;;;;5.54;100.00;97077.06;2587075;28;20042;-95
2023/12/21 04:57:40;;;;;;;1.15;0.57;;;;;;;5.45;100.00;97084.25;2590422;28;20029;-95
2023/12/21 04:58:56;;;;;;;0.40;0.40;;;;;;;5.48;100.00;97086.75;2595176;28;20150;-95
2023/12/21 05:00:13;;;;;;;0.68;0.50;;;;;;;5.45;100.00;97093.78;2588539;28;20064;-95
2023/12/21 05:01:29;;;;;;;0.52;0.50;;;;;;;5.47;100.00;97084.19;2591589;28;20076;-94
2023/12/21 05:02:45;;;;;;;0.17;0.10;;;;;;;5.62;100.00;97098.47;2592793;28;21116;-93
2023/12/21 05:04:03;;;;;;;0.32;0.32;;;;;;;5.55;100.00;97092.63;2591889;28;20129;-94
2023/12/21 05:05:21;;;;;;;0.30;0.30;;;;;;;5.46;100.00;97108.47;2589792;28;20037;-94
2023/12/21 05:06:37;;;;;;;0.40;0.40;;;;;;;5.47;100.00;97085.06;2589536;28;20545;-94
2023/12/21 05:07:53;;;;;;;0.40;0.32;;;;;;;5.64;100.00;97083.72;2590231;28;20045;-94
2023/12/21 05:09:09;;;;;;;0.28;0.28;;;;;;;5.56;100.00;97089.13;2583637;28;20046;-94
2023/12/21 05:10:25;;;;;;;0.40;0.40;;;;;;;5.60;100.00;97092.50;2585458;28;20034;-94
2023/12/21 05:11:41;;;;;;;0.40;0.32;;;;;;;5.63;100.00;97105.38;2583142;28;20037;-95
2023/12/21 05:12:57;;;;;;;0.55;0.30;;;;;;;5.75;100.00;97101.56;2588491;28;20068;-95
2023/12/21 05:14:13;;;;;;;1.98;0.55;;;;;;;5.89;100.00;97106.34;2599462;28;20053;-94
2023/12/21 05:15:29;;;;;;;0.30;0.30;;;;;;;5.49;100.00;97090.19;2582389;28;20061;-93
2023/12/21 05:16:45;;;;;;;0.30;0.30;;;;;;;5.55;100.00;97081.38;2584447;28;20076;-95
2023/12/21 05:18:01;;;;;;;0.40;0.20;;;;;;;5.56;100.00;97101.25;2585684;28;20080;-94
2023/12/21 05:19:17;;;;;;;0.68;0.50;;;;;;;5.53;100.00;97084.03;2603343;28;20290;-94
2023/12/21 05:20:33;;;;;;;1.10;0.50;;;;;;;5.63;100.00;97082.00;2588326;28;20648;-94
2023/12/21 05:21:49;;;;;;;0.73;0.30;;;;;;;5.57;100.00;97090.81;2581108;28;20045;-94
2023/12/21 05:23:05;;;;;;;0.47;0.47;;;;;;;5.72;100.00;97084.31;2595673;28;20031;-94
2023/12/21 05:24:21;;;;;;;0.95;0.60;;;;;;;5.97;100.00;97078.34;2589480;28;20046;-94
2023/12/21 05:25:37;;;;;;;0.40;0.40;;;;;;;5.54;100.00;97077.94;2585372;28;20053;-93
2023/12/21 05:26:53;;;;;;;0.90;0.60;;;;;;;5.47;100.00;97068.63;2587135;28;20811;-94
2023/12/21 05:28:12;;;;;;;0.63;0.47;;;;;;;5.79;100.00;97070.25;2591544;28;20069;-94
2023/12/21 05:29:28;;;;;;;0.90;0.70;;;;;;;5.47;100.00;97073.81;2588019;28;20050;-93
2023/12/21 05:30:44;;;;;;;0.52;0.52;;;;;;;5.51;100.00;97065.91;2580177;28;20042;-93
2023/12/21 05:32:00;;;;;;;0.47;0.40;;;;;;;5.70;100.00;97062.72;2575033;28;20046;-94
2023/12/21 05:33:16;;;;;;;0.63;0.50;;;;;;;5.61;100.00;97068.22;2592288;28;20048;-94
2023/12/21 05:34:32;;;;;;;0.40;0.40;;;;;;;5.58;100.00;97060.50;2593949;28;20092;-94
2023/12/21 05:35:47;;;;;;;0.30;0.30;;;;;;;5.82;100.00;97061.53;2593180;28;20528;-92
2023/12/21 05:37:04;;;;;;;0.50;0.30;;;;;;;5.62;100.00;97064.72;2591682;28;20033;-92
2023/12/21 05:38:20;;;;;;;0.30;0.30;;;;;;;5.69;100.00;97065.41;2581701;28;20045;-92
2023/12/21 05:39:37;;;;;;;0.52;0.50;;;;;;;5.69;100.00;97066.22;2591031;28;20100;-94
2023/12/21 05:40:54;;;;;;;0.20;0.20;;;;;;;5.80;100.00;97064.16;2593739;28;20115;-94
2023/12/21 05:42:09;;;;;;;0.60;0.40;;;;;;;5.71;100.00;97063.59;2590978;28;20172;-94
2023/12/21 05:43:25;;;;;;;0.75;0.50;;;;;;;5.60;100.00;97064.75;2588780;28;20049;-93
2023/12/21 05:44:41;;;;;;;0.55;0.40;;;;;;;5.65;100.00;97067.22;2589902;28;20033;-95
2023/12/21 05:45:57;;;;;;;0.40;0.20;;;;;;;5.70;100.00;97061.91;2590357;28;20042;-95
2023/12/21 05:47:13;;;;;;;0.73;0.40;;;;;;;5.66;100.00;97066.31;2578570;28;20034;-94
2023/12/21 05:48:31;;;;;;;0.38;0.30;;;;;;;5.68;100.00;97053.31;2576434;28;20041;-93
2023/12/21 05:49:47;;;;;;;0.30;0.30;;;;;;;5.69;100.00;97063.63;2586599;28;20081;-93
2023/12/21 05:51:04;;;;;;;0.25;0.25;;;;;;;5.88;100.00;97050.94;2585449;28;20034;-93
2023/12/21 05:52:20;;;;;;;0.85;0.22;;;;;;;5.81;100.00;97070.22;2577794;28;20042;-93
2023/12/21 05:53:35;;;;;;;0.45;0.30;;;;;;;5.75;100.00;97063.47;2583968;28;20049;-93
2023/12/21 05:54:51;;;;;;;0.20;0.20;;;;;;;5.82;100.00;97053.72;2578274;28;20042;-94
2023/12/21 05:56:07;;;;;;;0.28;0.28;;;;;;;5.82;100.00;97058.94;2592326;28;20107;-94
2023/12/21 05:57:24;;;;;;;0.85;0.50;;;;;;;5.54;100.00;97064.97;2588491;28;20046;-93
2023/12/21 05:58:40;;;;;;;0.30;0.30;;;;;;;5.76;100.00;97070.34;2575605;28;20050;-95
2023/12/21 05:59:56;;;;;;;0.55;0.50;;;;;;;5.47;100.00;97056.50;2586549;28;20647;-93
2023/12/21 06:01:13;;;;;;;0.20;0.20;;;;;;;5.75;100.00;97045.28;2589159;28;20041;-92